Terminal Aerodrome Forecast
Issued by NWS Wilmington, OH

Current Version | Previous Version | Graphics & Text | Print | Product List | Glossary On
Versions: 1 2 3 4 5 6 7 8 9 10 11 12 13 14 15 16 17 18 19 20 21 22 23 24 25 26 27 28 29 30 31 32 33 34 35
000
FTUS41 KILN 202300
TAFCVG
TAF
KCVG 202330Z 2100/2206 20007KT P6SM FEW035 BKN250
     FM210600 22010KT P6SM VCSH BKN040
     FM211000 23010KT P6SM VCSH OVC025
     FM211500 26014G24KT P6SM BKN035
     FM211900 30017G26KT P6SM SCT040
     FM220100 32013KT P6SM OVC050=

USA.gov is the U.S. government's official web portal to all federal, state and local government web resources and services.